Time;durP1;ratioP1;P1;durP2;ratioP2;P2;SDS_P1;SDS_P2;PMS_P1;PMS_P2;Temp;Humidity;BMP_temperature;BMP_pressure;BME280_temperature;BME280_humidity;BME280_pressure;Samples;Min_cycle;Max_cycle;Signal;HPM_P1;HPM_P2
2023/01/03 00:01:47;;;;;;;;;;;10.30;97.00;;;;;;5073054;28;20035;-88
2023/01/03 00:04:13;;;;;;;;;;;10.40;97.00;;;;;;5073590;28;20006;-88
2023/01/03 00:06:46;;;;;;;;;;;10.40;96.90;;;;;;5073638;28;20267;-88
2023/01/03 00:09:12;;;;;;;;;;;10.30;96.80;;;;;;5038985;28;20029;-88
2023/01/03 00:14:27;;;;;;;;;;;10.20;96.80;;;;;;5073271;28;19967;-88
2023/01/03 00:16:54;;;;;;;;;;;10.20;96.80;;;;;;5073481;28;19948;-88
2023/01/03 00:19:20;;;;;;;;;;;10.10;96.90;;;;;;5073107;28;20448;-88
2023/01/03 00:21:46;;;;;;;;;;;10.10;96.90;;;;;;5073253;28;19954;-88
2023/01/03 00:24:12;;;;;;;;;;;10.20;97.00;;;;;;5073248;28;19987;-88
2023/01/03 00:26:39;;;;;;;;;;;10.20;97.00;;;;;;5057232;28;20278;-88
2023/01/03 00:29:04;;;;;;;;;;;10.30;97.10;;;;;;5073301;28;19957;-88
2023/01/03 00:31:30;;;;;;;;;;;10.30;97.00;;;;;;5072664;28;19943;-88
2023/01/03 00:33:55;;;;;;;;;;;10.40;97.00;;;;;;5073038;28;20369;-88
2023/01/03 00:36:21;;;;;;;;;;;10.30;97.00;;;;;;5072942;28;20288;-88
2023/01/03 00:38:46;;;;;;;;;;;10.30;96.90;;;;;;5073168;28;20026;-88
2023/01/03 00:41:14;;;;;;;;;;;10.30;96.90;;;;;;5073068;28;19945;-88
2023/01/03 00:43:40;;;;;;;;;;;10.40;96.90;;;;;;5072694;28;19951;-88
2023/01/03 00:46:06;;;;;;;;;;;10.40;96.90;;;;;;5072707;28;19940;-88
2023/01/03 00:48:31;;;;;;;;;;;10.40;96.80;;;;;;5072884;28;19948;-88
2023/01/03 00:51:03;;;;;;;;;;;10.40;96.80;;;;;;5073020;28;19938;-88
2023/01/03 00:53:28;;;;;;;;;;;10.50;96.80;;;;;;5072570;28;19963;-88
2023/01/03 00:55:54;;;;;;;;;;;10.50;96.70;;;;;;5072882;28;19948;-88
2023/01/03 00:58:20;;;;;;;;;;;10.50;96.60;;;;;;5072746;28;19946;-88
2023/01/03 01:00:45;;;;;;;;;;;10.50;96.50;;;;;;5072972;28;19949;-88
2023/01/03 01:03:11;;;;;;;;;;;10.60;96.50;;;;;;5072766;28;20036;-88
2023/01/03 01:05:36;;;;;;;;;;;10.60;96.30;;;;;;5072441;28;19946;-88
2023/01/03 01:08:02;;;;;;;;;;;10.50;96.20;;;;;;5072278;28;19954;-88
2023/01/03 01:10:27;;;;;;;;;;;10.40;96.10;;;;;;5072871;28;19990;-88
2023/01/03 01:12:54;;;;;;;;;;;10.50;96.20;;;;;;5072631;28;20049;-88
2023/01/03 01:15:19;;;;;;;;;;;10.50;96.20;;;;;;5072062;28;20074;-88
2023/01/03 01:17:45;;;;;;;;;;;10.50;96.10;;;;;;5072608;28;20394;-88
2023/01/03 01:20:10;;;;;;;;;;;10.50;96.00;;;;;;5072409;28;19944;-88
2023/01/03 01:22:36;;;;;;;;;;;10.40;96.00;;;;;;5072471;28;19942;-88
2023/01/03 01:25:01;;;;;;;;;;;10.40;96.00;;;;;;5072414;28;19947;-88
2023/01/03 01:27:27;;;;;;;;;;;10.50;96.00;;;;;;5072443;28;20007;-88
2023/01/03 01:29:52;;;;;;;;;;;10.50;96.00;;;;;;5072655;28;19987;-88
2023/01/03 01:32:18;;;;;;;;;;;10.50;96.00;;;;;;5075988;28;20009;-88
2023/01/03 01:34:43;;;;;;;;;;;10.40;95.90;;;;;;5076197;28;19963;-88
2023/01/03 01:37:09;;;;;;;;;;;10.50;96.00;;;;;;5054955;28;19947;-88
2023/01/03 01:39:34;;;;;;;;;;;10.40;95.90;;;;;;5071166;28;20098;-88
2023/01/03 01:44:56;;;;;;;;;;;10.50;95.90;;;;;;5075877;28;19951;-88
2023/01/03 01:47:37;;;;;;;;;;;10.40;95.80;;;;;;5075915;28;19944;-88
2023/01/03 01:50:02;;;;;;;;;;;10.40;95.80;;;;;;5075920;28;19993;-88
2023/01/03 01:52:29;;;;;;;;;;;10.40;95.80;;;;;;5075922;28;20017;-88
2023/01/03 01:54:54;;;;;;;;;;;10.40;95.80;;;;;;5057314;28;20169;-88
2023/01/03 01:57:21;;;;;;;;;;;10.40;95.90;;;;;;5075717;28;19944;-88
2023/01/03 01:59:47;;;;;;;;;;;10.30;96.00;;;;;;5076111;28;19948;-88
2023/01/03 02:02:15;;;;;;;;;;;10.40;96.10;;;;;;5075840;28;19948;-88
2023/01/03 02:04:41;;;;;;;;;;;10.40;96.00;;;;;;5075508;28;20411;-88
2023/01/03 02:07:07;;;;;;;;;;;10.40;96.00;;;;;;5075761;28;19951;-88
2023/01/03 02:09:34;;;;;;;;;;;10.40;96.10;;;;;;5054287;28;19943;-88
2023/01/03 02:15:07;;;;;;;;;;;10.40;95.90;;;;;;5075804;28;20041;-88
2023/01/03 02:17:36;;;;;;;;;;;10.40;95.90;;;;;;5075459;28;19967;-88
2023/01/03 02:20:19;;;;;;;;;;;10.40;96.00;;;;;;5075446;28;19972;-87
2023/01/03 02:23:05;;;;;;;;;;;10.40;95.90;;;;;;5075238;28;20071;-88
2023/01/03 02:25:37;;;;;;;;;;;10.40;95.90;;;;;;5075493;28;19953;-88
2023/01/03 02:28:02;;;;;;;;;;;10.40;95.80;;;;;;5075213;28;19950;-88
2023/01/03 02:30:34;;;;;;;;;;;10.40;95.80;;;;;;5075434;28;20470;-88
2023/01/03 02:33:02;;;;;;;;;;;10.40;95.80;;;;;;5075133;28;19952;-88
2023/01/03 02:35:30;;;;;;;;;;;10.40;95.80;;;;;;5075345;28;20058;-88
2023/01/03 02:38:01;;;;;;;;;;;10.30;96.00;;;;;;5075204;28;20025;-88
2023/01/03 02:40:35;;;;;;;;;;;10.30;96.00;;;;;;5074512;28;19939;-88
2023/01/03 02:43:30;;;;;;;;;;;10.30;96.10;;;;;;5073816;28;19948;-88
2023/01/03 02:45:57;;;;;;;;;;;10.30;96.10;;;;;;5053049;28;19994;-88
2023/01/03 02:48:31;;;;;;;;;;;10.40;96.00;;;;;;5074550;28;19943;-88
2023/01/03 02:50:59;;;;;;;;;;;10.40;96.10;;;;;;5074904;28;19936;-88
2023/01/03 02:53:33;;;;;;;;;;;10.40;96.00;;;;;;5075149;28;19956;-88
2023/01/03 02:56:00;;;;;;;;;;;10.40;96.00;;;;;;5074792;28;19934;-88
2023/01/03 02:58:28;;;;;;;;;;;10.30;96.10;;;;;;5074671;28;19953;-88
2023/01/03 03:00:54;;;;;;;;;;;10.40;96.20;;;;;;5074616;28;19969;-87
2023/01/03 03:03:23;;;;;;;;;;;10.30;96.20;;;;;;5074908;28;19946;-87
2023/01/03 03:05:51;;;;;;;;;;;10.30;96.20;;;;;;5075064;28;19949;-88
2023/01/03 03:08:17;;;;;;;;;;;10.30;96.20;;;;;;5074277;28;19943;-88
2023/01/03 03:13:36;;;;;;;;;;;10.40;96.30;;;;;;5074718;28;20310;-88
2023/01/03 03:16:08;;;;;;;;;;;10.40;96.20;;;;;;5055170;22;20075;-88
2023/01/03 03:18:46;;;;;;;;;;;10.40;96.20;;;;;;5035679;28;19944;-88
2023/01/03 03:26:45;;;;;;;;;;;10.40;96.00;;;;;;5040401;28;19996;-88
2023/01/03 03:29:13;;;;;;;;;;;10.40;96.00;;;;;;5045569;28;19951;-88
2023/01/03 03:31:43;;;;;;;;;;;10.40;96.00;;;;;;5036025;28;19950;-88
2023/01/03 03:34:16;;;;;;;;;;;10.40;96.00;;;;;;5026534;28;19947;-88
2023/01/03 03:37:00;;;;;;;;;;;10.50;96.00;;;;;;5034394;28;19946;-88
2023/01/03 03:45:01;;;;;;;;;;;10.50;95.80;;;;;;5039761;28;20470;-88
2023/01/03 03:47:36;;;;;;;;;;;10.50;95.80;;;;;;5053725;28;19947;-88
2023/01/03 03:50:04;;;;;;;;;;;10.50;95.80;;;;;;5038982;28;19947;-88
2023/01/03 03:52:30;;;;;;;;;;;10.40;95.80;;;;;;5034091;28;19965;-88
2023/01/03 03:54:59;;;;;;;;;;;10.40;95.90;;;;;;5033353;28;20019;-88
2023/01/03 03:57:37;;;;;;;;;;;10.40;95.90;;;;;;5033758;28;20401;-88
2023/01/03 04:00:08;;;;;;;;;;;10.40;96.00;;;;;;5033767;28;19995;-88
2023/01/03 04:02:34;;;;;;;;;;;10.30;95.90;;;;;;5033729;28;19971;-88
2023/01/03 04:05:02;;;;;;;;;;;10.20;96.00;;;;;;5032193;28;20318;-88
2023/01/03 04:07:28;;;;;;;;;;;10.20;96.20;;;;;;5033606;28;19945;-88
2023/01/03 04:09:53;;;;;;;;;;;10.20;96.20;;;;;;5033548;28;19965;-88
2023/01/03 04:12:19;;;;;;;;;;;10.30;96.20;;;;;;5033507;28;19945;-88
2023/01/03 04:14:44;;;;;;;;;;;10.30;96.20;;;;;;5033393;28;20007;-88
2023/01/03 04:17:10;;;;;;;;;;;10.20;96.30;;;;;;5033673;28;20030;-88
2023/01/03 04:19:36;;;;;;;;;;;10.20;96.40;;;;;;5033176;28;20058;-88
2023/01/03 04:22:01;;;;;;;;;;;10.30;96.40;;;;;;5032166;28;19942;-88
2023/01/03 04:24:27;;;;;;;;;;;10.30;96.50;;;;;;5033327;28;19944;-88
2023/01/03 04:26:52;;;;;;;;;;;10.30;96.50;;;;;;5033247;28;20002;-88
2023/01/03 04:29:18;;;;;;;;;;;10.30;96.50;;;;;;5032941;28;20031;-88
2023/01/03 04:31:43;;;;;;;;;;;10.30;96.50;;;;;;5033247;28;19983;-88
2023/01/03 04:34:09;;;;;;;;;;;10.30;96.50;;;;;;5033104;28;19997;-88
2023/01/03 04:36:34;;;;;;;;;;;10.20;96.30;;;;;;5033124;28;19995;-88
2023/01/03 04:39:00;;;;;;;;;;;10.20;96.50;;;;;;5033036;28;20347;-88
2023/01/03 04:41:25;;;;;;;;;;;10.30;96.60;;;;;;5031757;28;19943;-88
2023/01/03 04:44:06;;;;;;;;;;;10.40;96.50;;;;;;5033055;28;19956;-88
2023/01/03 04:46:35;;;;;;;;;;;10.40;96.50;;;;;;5032729;28;19949;-88
2023/01/03 04:49:01;;;;;;;;;;;10.40;96.50;;;;;;5032848;28;19951;-88
2023/01/03 04:51:27;;;;;;;;;;;10.20;96.10;;;;;;5032965;28;19947;-87
2023/01/03 04:53:52;;;;;;;;;;;10.10;96.50;;;;;;5032713;28;19972;-88
2023/01/03 04:56:22;;;;;;;;;;;10.20;96.50;;;;;;5032743;28;20035;-88
2023/01/03 04:58:48;;;;;;;;;;;10.20;96.40;;;;;;5032789;28;19940;-88
2023/01/03 05:01:13;;;;;;;;;;;10.10;96.40;;;;;;5032846;28;20468;-88
2023/01/03 05:03:39;;;;;;;;;;;10.10;96.50;;;;;;5031695;28;19952;-87
2023/01/03 05:06:06;;;;;;;;;;;10.10;96.60;;;;;;5034169;28;19986;-87
2023/01/03 05:08:31;;;;;;;;;;;10.00;96.60;;;;;;5036910;28;19997;-88
2023/01/03 05:10:57;;;;;;;;;;;10.00;96.70;;;;;;5037091;28;20365;-88
2023/01/03 05:13:22;;;;;;;;;;;10.00;96.70;;;;;;5036983;28;19954;-87
2023/01/03 05:15:48;;;;;;;;;;;10.00;96.80;;;;;;5036772;28;19985;-88
2023/01/03 05:18:14;;;;;;;;;;;10.00;96.80;;;;;;5036746;28;19943;-87
2023/01/03 05:26:16;;;;;;;;;;;10.00;96.90;;;;;;5036500;28;19951;-88
2023/01/03 05:28:43;;;;;;;;;;;10.00;96.80;;;;;;5035563;28;20398;-88
2023/01/03 05:31:08;;;;;;;;;;;10.00;96.90;;;;;;5036456;28;20416;-88
2023/01/03 05:33:36;;;;;;;;;;;9.90;96.80;;;;;;5036501;28;19946;-88
2023/01/03 05:36:01;;;;;;;;;;;9.90;96.80;;;;;;5036432;28;20006;-88
2023/01/03 05:38:27;;;;;;;;;;;9.90;96.90;;;;;;5036524;28;20076;-88
2023/01/03 05:40:52;;;;;;;;;;;9.90;96.90;;;;;;5036700;28;20048;-87
2023/01/03 05:43:18;;;;;;;;;;;9.90;96.90;;;;;;5036289;28;19948;-87
2023/01/03 05:45:47;;;;;;;;;;;9.90;96.90;;;;;;5036547;28;20043;-87
2023/01/03 05:48:13;;;;;;;;;;;9.90;96.90;;;;;;5036267;28;20040;-87
2023/01/03 05:50:38;;;;;;;;;;;9.80;96.90;;;;;;5036061;28;19991;-87
2023/01/03 05:53:04;;;;;;;;;;;9.70;97.00;;;;;;5035950;28;20421;-88
2023/01/03 05:55:29;;;;;;;;;;;9.80;97.00;;;;;;5035891;28;19963;-88
2023/01/03 05:57:55;;;;;;;;;;;9.80;97.10;;;;;;5036039;28;20045;-88
2023/01/03 06:00:20;;;;;;;;;;;9.80;97.10;;;;;;5035944;28;19976;-88
2023/01/03 06:02:46;;;;;;;;;;;9.80;97.10;;;;;;5035729;28;19951;-88
2023/01/03 06:05:12;;;;;;;;;;;9.80;97.10;;;;;;5034081;28;19944;-87
2023/01/03 06:07:37;;;;;;;;;;;9.80;97.10;;;;;;5034472;28;20032;-87
2023/01/03 06:10:04;;;;;;;;;;;9.90;97.10;;;;;;5034543;28;20042;-87
2023/01/03 06:12:29;;;;;;;;;;;9.90;97.10;;;;;;5035710;28;19949;-87
2023/01/03 06:14:55;;;;;;;;;;;9.90;97.10;;;;;;5034968;28;20079;-87
2023/01/03 06:20:05;;;;;;;;;;;9.80;97.20;;;;;;5033655;28;19947;-87
2023/01/03 06:22:30;;;;;;;;;;;9.80;97.20;;;;;;5034960;28;19947;-87
2023/01/03 06:24:56;;;;;;;;;;;9.90;97.30;;;;;;5035424;28;20424;-87
2023/01/03 06:27:21;;;;;;;;;;;9.90;97.30;;;;;;5027253;28;19972;-87
2023/01/03 06:29:47;;;;;;;;;;;9.80;97.20;;;;;;5030419;28;19943;-88
2023/01/03 06:32:12;;;;;;;;;;;9.70;97.20;;;;;;5034237;28;19950;-87
2023/01/03 06:34:38;;;;;;;;;;;9.80;97.30;;;;;;5015614;28;19966;-88
2023/01/03 06:37:03;;;;;;;;;;;9.80;97.30;;;;;;5029457;28;19951;-87
2023/01/03 06:39:29;;;;;;;;;;;9.80;97.30;;;;;;5034861;28;20001;-88
2023/01/03 06:41:54;;;;;;;;;;;9.80;97.30;;;;;;5035160;28;20003;-88
2023/01/03 06:44:20;;;;;;;;;;;9.80;97.30;;;;;;5032748;28;19945;-88
2023/01/03 06:54:59;;;;;;;;;;;9.90;97.30;;;;;;5033113;28;19949;-87
2023/01/03 06:57:25;;;;;;;;;;;10.00;97.10;;;;;;5034069;28;19944;-88
2023/01/03 06:59:50;;;;;;;;;;;10.00;97.20;;;;;;5034034;28;19939;-88
2023/01/03 07:02:16;;;;;;;;;;;10.00;97.20;;;;;;5033665;28;19991;-88
2023/01/03 07:04:41;;;;;;;;;;;10.10;97.20;;;;;;5029062;28;19943;-87
2023/01/03 07:07:07;;;;;;;;;;;10.00;97.10;;;;;;5034222;28;20029;-87
2023/01/03 07:09:32;;;;;;;;;;;9.90;97.10;;;;;;5034141;28;21621;-88
2023/01/03 07:13:57;;;;;;;;;;;9.90;97.10;;;;;;5033659;28;19955;-88
2023/01/03 07:14:43;;;;;;;;;;;9.90;97.10;;;;;;5031642;28;19967;-87
2023/01/03 07:17:09;;;;;;;;;;;9.90;97.10;;;;;;5033960;28;19953;-88
2023/01/03 07:19:34;;;;;;;;;;;9.90;97.10;;;;;;5034656;28;20017;-87
2023/01/03 07:22:00;;;;;;;;;;;9.90;97.10;;;;;;5034264;28;19945;-88
2023/01/03 07:24:26;;;;;;;;;;;9.90;96.90;;;;;;5031855;28;19952;-88
2023/01/03 07:26:51;;;;;;;;;;;10.00;96.90;;;;;;5031303;28;19949;-87
2023/01/03 07:29:17;;;;;;;;;;;10.00;96.90;;;;;;5033147;28;19955;-87
2023/01/03 07:31:42;;;;;;;;;;;9.90;96.90;;;;;;5033523;28;19956;-87
2023/01/03 07:34:08;;;;;;;;;;;9.90;96.90;;;;;;5031708;28;19973;-87
2023/01/03 07:36:34;;;;;;;;;;;9.90;97.00;;;;;;5030754;28;19948;-88
2023/01/03 07:38:59;;;;;;;;;;;10.10;97.10;;;;;;5033362;28;19955;-87
2023/01/03 07:43:35;;;;;;;;;;;10.30;97.10;;;;;;5032235;28;19998;-87
2023/01/03 07:44:10;;;;;;;;;;;10.40;97.10;;;;;;5033653;28;19946;-88
2023/01/03 07:46:36;;;;;;;;;;;10.40;97.00;;;;;;5033912;28;20301;-87
2023/01/03 07:49:01;;;;;;;;;;;10.40;97.00;;;;;;5032370;28;19950;-87
2023/01/03 07:51:27;;;;;;;;;;;10.50;96.70;;;;;;5030886;28;19940;-87
2023/01/03 07:53:54;;;;;;;;;;;10.30;96.00;;;;;;5028806;28;20414;-87
2023/01/03 07:56:20;;;;;;;;;;;10.10;96.40;;;;;;5032423;28;19954;-88
2023/01/03 07:58:46;;;;;;;;;;;10.20;96.60;;;;;;5022559;28;19953;-87
2023/01/03 08:01:14;;;;;;;;;;;10.20;96.30;;;;;;5029060;28;19945;-87
2023/01/03 08:03:39;;;;;;;;;;;10.20;96.50;;;;;;5032021;28;19944;-87
2023/01/03 08:06:09;;;;;;;;;;;10.20;96.60;;;;;;5032422;28;19947;-87
2023/01/03 08:08:35;;;;;;;;;;;10.30;96.60;;;;;;5031458;28;20394;-87
2023/01/03 08:13:46;;;;;;;;;;;10.70;96.40;;;;;;5029069;28;20392;-87
2023/01/03 08:16:13;;;;;;;;;;;10.70;96.40;;;;;;5032138;28;19984;-87
2023/01/03 08:18:39;;;;;;;;;;;10.90;96.30;;;;;;5032497;28;19970;-87
2023/01/03 08:21:06;;;;;;;;;;;11.10;96.20;;;;;;5032965;28;19943;-87
2023/01/03 08:23:31;;;;;;;;;;;11.20;96.00;;;;;;5033173;28;20044;-87
2023/01/03 08:26:27;;;;;;;;;;;11.30;95.10;;;;;;5031844;28;20039;-87
2023/01/03 08:28:53;;;;;;;;;;;11.30;94.20;;;;;;5006518;28;19958;-87
2023/01/03 08:31:20;;;;;;;;;;;11.30;93.60;;;;;;5031573;28;19949;-88
2023/01/03 08:33:53;;;;;;;;;;;11.20;93.40;;;;;;5032763;28;20007;-88
2023/01/03 08:36:19;;;;;;;;;;;11.10;93.60;;;;;;5032206;28;20001;-87
2023/01/03 08:38:47;;;;;;;;;;;11.20;93.90;;;;;;5031136;28;20043;-87
2023/01/03 08:41:15;;;;;;;;;;;11.30;93.90;;;;;;5031704;28;19949;-87
2023/01/03 08:43:43;;;;;;;;;;;11.40;93.80;;;;;;5031675;28;19978;-87
2023/01/03 08:46:10;;;;;;;;;;;11.50;93.50;;;;;;5031923;28;20467;-87
2023/01/03 08:48:35;;;;;;;;;;;11.60;93.20;;;;;;5030105;28;19956;-87
2023/01/03 08:51:01;;;;;;;;;;;11.50;93.30;;;;;;5031966;28;19949;-87
2023/01/03 08:53:27;;;;;;;;;;;11.40;93.10;;;;;;5031156;28;19964;-87
2023/01/03 08:55:53;;;;;;;;;;;11.40;93.30;;;;;;5031701;28;19948;-88
2023/01/03 08:58:19;;;;;;;;;;;11.40;93.30;;;;;;5032534;28;19951;-87
2023/01/03 09:00:44;;;;;;;;;;;11.50;92.60;;;;;;5032163;28;19938;-87
2023/01/03 09:03:10;;;;;;;;;;;11.40;92.50;;;;;;5030703;28;19947;-87
2023/01/03 09:05:35;;;;;;;;;;;11.30;92.80;;;;;;5032150;28;19955;-87
2023/01/03 09:08:01;;;;;;;;;;;11.30;93.00;;;;;;5032674;28;19993;-87
2023/01/03 09:10:26;;;;;;;;;;;11.20;93.20;;;;;;5032298;28;20311;-87
2023/01/03 09:12:52;;;;;;;;;;;11.20;93.40;;;;;;5032137;28;19942;-87
2023/01/03 09:15:18;;;;;;;;;;;11.30;93.60;;;;;;5030830;28;20324;-87
2023/01/03 09:17:46;;;;;;;;;;;11.30;93.60;;;;;;5032283;28;20426;-87
2023/01/03 09:20:12;;;;;;;;;;;11.30;93.70;;;;;;5031477;28;19943;-87
2023/01/03 09:22:38;;;;;;;;;;;11.40;93.80;;;;;;5031578;28;20412;-87
2023/01/03 09:25:04;;;;;;;;;;;11.40;93.70;;;;;;5032131;28;19950;-87
2023/01/03 09:27:29;;;;;;;;;;;11.50;93.20;;;;;;5032566;28;19957;-87
2023/01/03 09:29:54;;;;;;;;;;;11.60;92.80;;;;;;5032325;28;19993;-87
2023/01/03 09:32:20;;;;;;;;;;;11.50;92.80;;;;;;5031451;28;19957;-87
2023/01/03 09:34:46;;;;;;;;;;;11.50;92.70;;;;;;5030064;28;19967;-87
2023/01/03 09:37:11;;;;;;;;;;;11.40;92.80;;;;;;5031025;28;19954;-86
2023/01/03 09:39:39;;;;;;;;;;;11.50;92.90;;;;;;5032214;28;19949;-87
2023/01/03 09:44:50;;;;;;;;;;;11.50;92.90;;;;;;5030618;28;19947;-87
2023/01/03 09:47:21;;;;;;;;;;;11.70;93.00;;;;;;5031228;28;19951;-87
2023/01/03 09:49:47;;;;;;;;;;;11.90;92.50;;;;;;5029404;28;20452;-87
2023/01/03 10:04:04;;;;;;;;;;;12.60;88.70;;;;;;5033295;28;20144;-87
2023/01/03 10:06:34;;;;;;;;;;;12.50;88.90;;;;;;5009521;28;20046;-87
2023/01/03 10:09:18;;;;;;;;;;;12.40;89.60;;;;;;5030558;28;19937;-87
2023/01/03 10:12:04;;;;;;;;;;;12.50;89.50;;;;;;5022931;28;20038;-87
2023/01/03 10:14:44;;;;;;;;;;;12.80;88.60;;;;;;4998737;28;19965;-87
2023/01/03 10:17:13;;;;;;;;;;;12.90;88.20;;;;;;5026709;28;20025;-87
2023/01/03 10:19:44;;;;;;;;;;;13.10;87.50;;;;;;5034109;28;19947;-87
2023/01/03 10:22:09;;;;;;;;;;;13.00;87.40;;;;;;5022154;28;19955;-87
2023/01/03 10:24:40;;;;;;;;;;;12.90;87.80;;;;;;5034331;28;19951;-87
2023/01/03 10:27:05;;;;;;;;;;;12.90;88.60;;;;;;5033858;28;19965;-87
2023/01/03 10:29:31;;;;;;;;;;;12.80;87.80;;;;;;5031696;28;19949;-87
2023/01/03 10:32:02;;;;;;;;;;;12.80;87.50;;;;;;5033363;28;19940;-87
2023/01/03 10:34:28;;;;;;;;;;;12.90;87.30;;;;;;5029774;28;19958;-87
2023/01/03 10:36:54;;;;;;;;;;;13.00;86.30;;;;;;5033830;28;19950;-87
2023/01/03 10:39:28;;;;;;;;;;;13.10;84.40;;;;;;5033785;28;20006;-87
2023/01/03 10:41:56;;;;;;;;;;;13.10;84.50;;;;;;5026543;28;19930;-87
2023/01/03 10:44:25;;;;;;;;;;;13.00;85.50;;;;;;5033355;28;19995;-87
2023/01/03 10:46:52;;;;;;;;;;;12.90;86.10;;;;;;5034419;28;19952;-87
2023/01/03 10:49:20;;;;;;;;;;;13.00;86.60;;;;;;5033599;28;19935;-87
2023/01/03 10:51:45;;;;;;;;;;;13.20;86.30;;;;;;5027704;28;20088;-87
2023/01/03 10:54:17;;;;;;;;;;;13.50;85.10;;;;;;5033464;28;20090;-87
2023/01/03 10:56:43;;;;;;;;;;;13.70;84.30;;;;;;5020879;28;19946;-87
2023/01/03 10:59:16;;;;;;;;;;;13.70;83.80;;;;;;5033872;28;19948;-87
2023/01/03 11:02:02;;;;;;;;;;;13.90;83.70;;;;;;5031956;28;19946;-87
2023/01/03 11:04:29;;;;;;;;;;;14.00;83.10;;;;;;5031977;28;19938;-87
2023/01/03 11:06:57;;;;;;;;;;;14.10;82.70;;;;;;5034131;28;19944;-87
2023/01/03 11:09:23;;;;;;;;;;;14.10;81.70;;;;;;5034667;28;20426;-87
2023/01/03 11:11:59;;;;;;;;;;;13.70;81.80;;;;;;5034406;28;20040;-87
2023/01/03 11:17:00;;;;;;;;;;;13.50;83.10;;;;;;5060857;22;19983;-87
2023/01/03 11:19:27;;;;;;;;;;;13.40;83.40;;;;;;5054639;28;20601;-87
2023/01/03 11:21:59;;;;;;;;;;;13.40;83.60;;;;;;5054499;28;19942;-87
2023/01/03 11:24:35;;;;;;;;;;;13.20;84.40;;;;;;5054574;28;19946;-87
2023/01/03 11:27:24;;;;;;;;;;;13.20;84.90;;;;;;5054491;28;19939;-87
2023/01/03 11:29:49;;;;;;;;;;;13.10;84.80;;;;;;5043506;28;19943;-87
2023/01/03 11:32:23;;;;;;;;;;;13.20;84.90;;;;;;5054161;28;20300;-87
2023/01/03 11:34:58;;;;;;;;;;;13.40;84.60;;;;;;5054295;28;19999;-87
2023/01/03 11:37:43;;;;;;;;;;;13.70;83.70;;;;;;5053554;28;20263;-87
2023/01/03 11:40:09;;;;;;;;;;;13.90;83.00;;;;;;5054173;28;19984;-88
2023/01/03 11:42:34;;;;;;;;;;;13.80;82.60;;;;;;5054197;28;19937;-87
2023/01/03 11:45:05;;;;;;;;;;;13.80;83.00;;;;;;5054158;28;20023;-86
2023/01/03 11:47:53;;;;;;;;;;;13.80;83.00;;;;;;5054090;28;20388;-87
2023/01/03 11:50:26;;;;;;;;;;;13.60;83.30;;;;;;5053817;28;20040;-87
2023/01/03 11:53:02;;;;;;;;;;;13.50;83.70;;;;;;5063217;28;19963;-87
2023/01/03 11:55:47;;;;;;;;;;;13.50;83.80;;;;;;5073761;28;20023;-87
2023/01/03 11:58:15;;;;;;;;;;;13.50;83.70;;;;;;5073821;28;20315;-87
2023/01/03 12:00:50;;;;;;;;;;;13.60;83.80;;;;;;5073374;28;20377;-87
2023/01/03 12:03:34;;;;;;;;;;;13.80;83.50;;;;;;5073803;28;19996;-87
2023/01/03 12:06:05;;;;;;;;;;;13.90;82.80;;;;;;5073774;28;20244;-87
2023/01/03 12:08:30;;;;;;;;;;;14.10;82.40;;;;;;5073625;28;19938;-87
2023/01/03 12:11:04;;;;;;;;;;;14.20;81.70;;;;;;5072522;28;19960;-87
2023/01/03 12:13:41;;;;;;;;;;;14.20;81.50;;;;;;5072743;28;19956;-88
2023/01/03 12:16:22;;;;;;;;;;;14.20;81.60;;;;;;5072741;28;19985;-87
2023/01/03 12:18:51;;;;;;;;;;;13.90;82.00;;;;;;5073475;28;20034;-87
2023/01/03 12:21:24;;;;;;;;;;;13.70;83.00;;;;;;5072794;28;19946;-87
2023/01/03 12:23:50;;;;;;;;;;;13.50;84.10;;;;;;5071532;28;19948;-87
2023/01/03 12:26:16;;;;;;;;;;;13.50;84.60;;;;;;5072451;28;19944;-87
2023/01/03 12:28:47;;;;;;;;;;;13.40;84.70;;;;;;5061111;28;19944;-87
2023/01/03 12:31:19;;;;;;;;;;;13.30;85.00;;;;;;5070605;28;19949;-87
2023/01/03 12:33:47;;;;;;;;;;;13.30;85.50;;;;;;5072336;28;20000;-87
2023/01/03 12:36:15;;;;;;;;;;;13.20;85.30;;;;;;5071193;28;19942;-87
2023/01/03 12:38:43;;;;;;;;;;;13.20;85.40;;;;;;5073146;28;19951;-87
2023/01/03 12:41:26;;;;;;;;;;;13.30;85.10;;;;;;5071015;28;19940;-87
2023/01/03 12:44:10;;;;;;;;;;;13.50;84.80;;;;;;5070730;28;19950;-87
2023/01/03 12:46:38;;;;;;;;;;;13.70;84.70;;;;;;5068505;28;20475;-87
2023/01/03 12:49:36;;;;;;;;;;;13.90;82.80;;;;;;5070174;28;20037;-87
2023/01/03 12:52:02;;;;;;;;;;;14.00;82.30;;;;;;5007550;28;20418;-87
2023/01/03 12:54:35;;;;;;;;;;;14.00;82.10;;;;;;5064903;28;19957;-87
2023/01/03 12:57:07;;;;;;;;;;;13.90;82.30;;;;;;5056196;28;20520;-87
2023/01/03 12:59:40;;;;;;;;;;;13.90;82.20;;;;;;5071720;28;19942;-87
2023/01/03 13:02:19;;;;;;;;;;;13.90;82.20;;;;;;5062557;28;20442;-87
2023/01/03 13:04:48;;;;;;;;;;;13.90;81.50;;;;;;5067470;28;19943;-87
2023/01/03 13:07:17;;;;;;;;;;;13.90;81.20;;;;;;5056107;28;19948;-87
2023/01/03 13:09:54;;;;;;;;;;;13.90;81.20;;;;;;5071515;28;19941;-87
2023/01/03 13:12:22;;;;;;;;;;;13.90;81.60;;;;;;5060321;28;19954;-87
2023/01/03 13:15:13;;;;;;;;;;;13.90;82.40;;;;;;5068287;28;19992;-87
2023/01/03 13:17:43;;;;;;;;;;;13.70;82.70;;;;;;5065907;28;19950;-87
2023/01/03 13:20:27;;;;;;;;;;;13.70;83.20;;;;;;5058196;28;19944;-87
2023/01/03 13:22:53;;;;;;;;;;;13.90;83.20;;;;;;5056446;28;20425;-87
2023/01/03 13:25:30;;;;;;;;;;;13.90;83.10;;;;;;5071748;28;19945;-87
2023/01/03 13:28:02;;;;;;;;;;;13.90;82.50;;;;;;5070944;28;19951;-87
2023/01/03 13:30:29;;;;;;;;;;;13.90;82.60;;;;;;5075452;28;19995;-87
2023/01/03 13:33:10;;;;;;;;;;;13.70;83.10;;;;;;5059886;28;19947;-87
2023/01/03 13:35:41;;;;;;;;;;;13.60;83.40;;;;;;5068940;28;19973;-87
2023/01/03 13:38:27;;;;;;;;;;;13.50;83.50;;;;;;5066970;28;19950;-87
2023/01/03 13:41:03;;;;;;;;;;;13.40;83.00;;;;;;5073218;28;19969;-87
2023/01/03 13:43:33;;;;;;;;;;;13.30;83.80;;;;;;5062420;28;19951;-86
2023/01/03 13:46:16;;;;;;;;;;;13.10;84.40;;;;;;5065361;28;20058;-87
2023/01/03 13:48:52;;;;;;;;;;;13.00;84.80;;;;;;5061976;28;19949;-86
2023/01/03 13:51:25;;;;;;;;;;;12.90;84.60;;;;;;5074070;28;20032;-87
2023/01/03 13:53:54;;;;;;;;;;;12.90;84.50;;;;;;5067640;28;20015;-87
2023/01/03 13:56:22;;;;;;;;;;;12.90;84.60;;;;;;5075618;28;20454;-87
2023/01/03 13:58:52;;;;;;;;;;;12.90;84.40;;;;;;5074571;28;19996;-86
2023/01/03 14:01:32;;;;;;;;;;;12.90;84.30;;;;;;5073140;28;19940;-87
2023/01/03 14:04:07;;;;;;;;;;;12.90;84.00;;;;;;5075175;28;20397;-87
2023/01/03 14:06:41;;;;;;;;;;;12.90;84.30;;;;;;5059662;28;19946;-87
2023/01/03 14:09:14;;;;;;;;;;;12.80;84.10;;;;;;5072919;28;19997;-87
2023/01/03 14:11:53;;;;;;;;;;;12.90;84.10;;;;;;5067416;28;19944;-87
2023/01/03 14:14:22;;;;;;;;;;;12.90;84.00;;;;;;5062296;28;19962;-87
2023/01/03 14:16:51;;;;;;;;;;;12.90;83.90;;;;;;5074946;28;20074;-87
2023/01/03 14:19:23;;;;;;;;;;;13.00;83.80;;;;;;5059661;28;19999;-87
2023/01/03 14:21:51;;;;;;;;;;;13.10;83.50;;;;;;5075326;28;19983;-87
2023/01/03 14:24:21;;;;;;;;;;;13.10;84.50;;;;;;5067126;28;19949;-87
2023/01/03 14:26:47;;;;;;;;;;;13.20;84.00;;;;;;5070946;28;19968;-87
2023/01/03 14:29:15;;;;;;;;;;;13.20;83.90;;;;;;5073799;28;20444;-87
2023/01/03 14:31:43;;;;;;;;;;;13.10;84.00;;;;;;5075015;28;19944;-87
2023/01/03 14:34:25;;;;;;;;;;;13.10;84.50;;;;;;5066891;28;19965;-87
2023/01/03 14:36:50;;;;;;;;;;;13.10;84.30;;;;;;5074346;28;19985;-88
2023/01/03 14:39:20;;;;;;;;;;;13.20;84.70;;;;;;5059606;28;19980;-87
2023/01/03 14:41:46;;;;;;;;;;;13.30;85.00;;;;;;5075212;28;19943;-87
2023/01/03 14:44:12;;;;;;;;;;;13.40;84.30;;;;;;5066671;28;19944;-87
2023/01/03 14:46:39;;;;;;;;;;;13.50;83.80;;;;;;5075025;28;19941;-88
2023/01/03 14:49:06;;;;;;;;;;;13.60;83.70;;;;;;5057033;28;19958;-87
2023/01/03 14:51:33;;;;;;;;;;;13.50;83.60;;;;;;5068276;28;19974;-87
2023/01/03 14:53:59;;;;;;;;;;;13.40;83.80;;;;;;5046686;28;20015;-88
2023/01/03 14:56:25;;;;;;;;;;;13.30;84.20;;;;;;5065450;28;20028;-87
2023/01/03 14:58:51;;;;;;;;;;;13.30;84.50;;;;;;5058518;28;19952;-87
2023/01/03 15:01:17;;;;;;;;;;;13.30;84.80;;;;;;5067134;28;20008;-87
2023/01/03 15:03:44;;;;;;;;;;;13.40;84.60;;;;;;5062650;28;20417;-87
2023/01/03 15:06:15;;;;;;;;;;;13.60;83.60;;;;;;5068458;28;20063;-87
2023/01/03 15:08:42;;;;;;;;;;;13.60;83.20;;;;;;5070314;28;19938;-87
2023/01/03 15:11:07;;;;;;;;;;;13.50;84.40;;;;;;5073071;28;20002;-87
2023/01/03 15:13:35;;;;;;;;;;;13.30;84.70;;;;;;5067759;28;20027;-87
2023/01/03 15:16:05;;;;;;;;;;;13.00;85.20;;;;;;5072571;28;19978;-87
2023/01/03 15:18:32;;;;;;;;;;;12.90;85.60;;;;;;5065465;28;20031;-87
2023/01/03 15:20:59;;;;;;;;;;;12.90;85.90;;;;;;5060412;28;19984;-87
2023/01/03 15:23:44;;;;;;;;;;;12.80;86.30;;;;;;5068721;28;19962;-87
2023/01/03 15:26:28;;;;;;;;;;;12.70;87.00;;;;;;5065218;28;20414;-87
2023/01/03 15:29:02;;;;;;;;;;;12.70;87.30;;;;;;5072623;28;19953;-87